aviador You're here:

KSIK Decoded Metar

in
Report Time2017-08-22 03:15:00
UTC Time2017-08-22 03:24:46
Flight Rules vfr VFR
Wind170° at 03 kt
W.Decomp.*RWY 20: 2.6 kt HW 1.5 kt LCW
W.Rank170° ranks 7
Current wind is below 170° avg. (5.9)
Visibility9999 m
Phenomena:N/A
Clouds:N/A
Expected CloudBase > 1,200 ft AGL from Temp-Dew spread
CeilingNone
Temp28°C
Dew Point25°C (84% RH)
Heat Index32.7°C
QNH1018 hPa
Raw Report
KSIK 220315Z AUTO 17003KT 10SM CLR 28/25 A3007 RMK AO2=

Extra information for KSIK:More info

Social comments